Time;durP1;ratioP1;P1;durP2;ratioP2;P2;SDS_P1;SDS_P2;PMS_P1;PMS_P2;Temp;Humidity;BMP_temperature;BMP_pressure;BME280_temperature;BME280_humidity;BME280_pressure;Samples;Min_cycle;Max_cycle;Signal;HPM_P1;HPM_P2
2021/05/07 00:02:06;;;;;;;10.75;3.83;;;;;;;9.77;60.68;100941.27;1785989;80;26471;-59
2021/05/07 00:04:34;;;;;;;14.73;4.00;;;;;;;9.74;60.23;100940.19;1785942;80;25730;-58
2021/05/07 00:07:02;;;;;;;13.48;4.15;;;;;;;9.74;60.30;100942.01;1762421;80;25550;-59
2021/05/07 00:09:30;;;;;;;15.65;3.95;;;;;;;9.70;59.87;100930.66;1782960;80;26659;-58
2021/05/07 00:11:59;;;;;;;9.65;3.92;;;;;;;9.63;59.86;100930.81;1786018;80;27548;-58
2021/05/07 00:14:27;;;;;;;15.95;4.85;;;;;;;9.56;59.76;100935.83;1785920;80;25638;-58
2021/05/07 00:16:56;;;;;;;10.05;4.05;;;;;;;9.51;59.96;100940.23;1783624;80;25707;-59
2021/05/07 00:19:24;;;;;;;8.90;3.58;;;;;;;9.47;59.95;100928.52;1771768;80;26027;-59
2021/05/07 00:21:52;;;;;;;10.43;4.10;;;;;;;9.36;60.50;100932.09;1776014;80;26189;-58
2021/05/07 00:24:21;;;;;;;7.83;3.95;;;;;;;9.23;61.24;100925.52;1784370;80;27577;-58
2021/05/07 00:26:50;;;;;;;12.78;4.95;;;;;;;9.07;61.03;100925.89;1786463;80;25812;-58
2021/05/07 00:29:18;;;;;;;14.47;3.33;;;;;;;8.99;61.22;100931.89;1754022;80;25819;-59
2021/05/07 00:31:46;;;;;;;15.70;3.25;;;;;;;8.91;60.86;100926.28;1742304;81;25764;-59
2021/05/07 00:34:14;;;;;;;13.08;4.08;;;;;;;8.87;60.80;100923.45;1783840;80;25648;-58
2021/05/07 00:36:42;;;;;;;10.60;3.90;;;;;;;8.84;60.94;100921.00;1764673;80;27575;-58
2021/05/07 00:39:10;;;;;;;12.68;3.90;;;;;;;8.81;60.69;100918.08;1779017;80;26092;-58
2021/05/07 00:41:39;;;;;;;6.35;3.37;;;;;;;8.80;60.82;100914.19;1779489;80;25673;-58
2021/05/07 00:44:08;;;;;;;10.75;3.22;;;;;;;8.76;60.56;100910.40;1762194;81;25777;-59
2021/05/07 00:46:37;;;;;;;6.33;3.12;;;;;;;8.74;60.71;100909.66;1762266;81;25690;-58
2021/05/07 00:49:09;;;;;;;19.05;4.15;;;;;;;8.72;60.61;100904.92;1756272;81;27604;-58
2021/05/07 00:51:37;;;;;;;13.25;3.35;;;;;;;8.67;61.02;100903.58;1753793;80;25738;-59
2021/05/07 00:54:06;;;;;;;12.05;3.30;;;;;;;8.60;60.97;100896.02;1713710;82;25783;-58
2021/05/07 00:56:35;;;;;;;8.58;2.98;;;;;;;8.56;61.21;100896.38;1727786;82;26471;-58
2021/05/07 00:59:04;;;;;;;14.30;3.83;;;;;;;8.54;61.25;100901.00;1725490;83;26141;-58
2021/05/07 01:01:32;;;;;;;10.68;4.28;;;;;;;8.51;61.53;100901.23;1731617;82;27467;-58
2021/05/07 01:04:00;;;;;;;11.03;3.12;;;;;;;8.50;62.45;100900.39;1731416;82;26073;-58
2021/05/07 01:06:28;;;;;;;8.28;3.05;;;;;;;8.50;62.58;100895.03;1725933;81;25745;-59
2021/05/07 01:08:57;;;;;;;13.30;3.47;;;;;;;8.54;62.51;100892.46;1750868;81;25740;-58
2021/05/07 01:11:25;;;;;;;12.88;3.22;;;;;;;8.57;62.65;100880.63;1747412;82;26047;-58
2021/05/07 01:13:54;;;;;;;7.42;2.42;;;;;;;8.57;62.69;100875.27;1749058;81;27581;-59
2021/05/07 01:16:22;;;;;;;10.72;2.70;;;;;;;8.53;63.87;100864.44;1762005;81;25748;-58
2021/05/07 01:18:50;;;;;;;5.35;2.85;;;;;;;8.48;63.08;100864.80;1748528;81;25658;-58
2021/05/07 01:21:18;;;;;;;8.35;3.08;;;;;;;8.44;62.92;100866.84;1757020;81;26387;-58
2021/05/07 01:23:46;;;;;;;12.75;2.92;;;;;;;8.44;62.98;100874.00;1757042;81;26190;-58
2021/05/07 01:26:14;;;;;;;14.13;3.20;;;;;;;8.45;62.79;100875.25;1722908;82;27541;-58
2021/05/07 01:28:43;;;;;;;13.60;4.12;;;;;;;8.50;62.71;100877.60;1722797;83;26090;-58
2021/05/07 01:31:11;;;;;;;9.68;2.87;;;;;;;8.54;62.99;100867.48;1723004;82;25754;-59
2021/05/07 01:33:41;;;;;;;9.55;2.77;;;;;;;8.57;62.82;100866.75;1722991;82;25737;-58
2021/05/07 01:36:09;;;;;;;7.55;2.80;;;;;;;8.56;62.55;100870.91;1723087;82;26079;-58
2021/05/07 01:38:39;;;;;;;6.92;3.10;;;;;;;8.54;62.54;100867.48;1710789;83;27562;-58
2021/05/07 01:41:08;;;;;;;7.72;3.08;;;;;;;8.53;62.20;100866.61;1759463;81;25786;-58
2021/05/07 01:43:41;;;;;;;13.10;2.87;;;;;;;8.52;62.25;100867.59;1759821;81;25934;-59
2021/05/07 01:46:09;;;;;;;8.75;3.65;;;;;;;8.52;62.31;100874.29;1728856;81;25670;-59
2021/05/07 01:48:37;;;;;;;8.93;4.05;;;;;;;8.48;62.22;100871.50;1759595;81;25713;-59
2021/05/07 01:51:08;;;;;;;7.95;2.83;;;;;;;8.39;62.06;100868.16;1738020;81;28478;-59
2021/05/07 01:53:38;;;;;;;9.10;3.00;;;;;;;8.30;62.47;100871.06;1698216;83;25754;-58
2021/05/07 01:56:07;;;;;;;16.70;4.55;;;;;;;8.23;62.27;100869.83;1729226;81;25454;-59
2021/05/07 01:58:36;;;;;;;8.43;3.02;;;;;;;8.20;62.66;100862.05;1729303;82;26432;-59
2021/05/07 02:01:06;;;;;;;7.90;3.00;;;;;;;8.13;62.53;100862.50;1729514;82;26160;-58
2021/05/07 02:03:34;;;;;;;7.40;2.98;;;;;;;8.10;62.87;100863.22;1729403;82;27549;-58
2021/05/07 02:06:10;;;;;;;6.62;2.98;;;;;;;8.08;63.56;100867.84;1726836;82;25483;-59
2021/05/07 02:08:40;;;;;;;6.22;3.00;;;;;;;8.03;63.46;100869.53;1722760;82;25717;-59
2021/05/07 02:11:08;;;;;;;8.38;2.83;;;;;;;8.00;63.71;100875.14;1710797;83;26529;-59
2021/05/07 02:13:36;;;;;;;11.50;3.12;;;;;;;8.00;63.98;100869.79;1759662;81;25621;-58
2021/05/07 02:16:05;;;;;;;6.50;2.87;;;;;;;7.98;64.20;100868.55;1759629;81;28426;-58
2021/05/07 02:18:33;;;;;;;6.30;2.65;;;;;;;7.97;64.25;100861.51;1759380;81;25736;-58
2021/05/07 02:21:02;;;;;;;9.98;2.92;;;;;;;7.98;64.91;100858.33;1759043;81;25724;-59
2021/05/07 02:23:32;;;;;;;6.17;2.77;;;;;;;7.97;65.02;100853.47;1759610;81;25649;-59
2021/05/07 02:26:01;;;;;;;15.70;6.47;;;;;;;7.98;64.95;100839.58;1759528;81;26089;-58
2021/05/07 02:28:31;;;;;;;16.50;6.95;;;;;;;8.06;65.66;100830.96;1758918;81;27560;-59
2021/05/07 02:30:59;;;;;;;17.25;5.58;;;;;;;8.15;65.16;100839.63;1759394;81;25680;-58
2021/05/07 02:33:27;;;;;;;9.83;3.10;;;;;;;8.21;65.08;100837.80;1759593;81;25423;-59
2021/05/07 02:35:55;;;;;;;12.73;4.00;;;;;;;8.28;65.01;100824.78;1759469;81;25640;-59
2021/05/07 02:38:23;;;;;;;12.47;3.70;;;;;;;8.36;64.80;100814.31;1744758;81;26318;-58
2021/05/07 02:40:51;;;;;;;7.50;2.70;;;;;;;8.46;64.61;100814.42;1759447;81;28826;-58
2021/05/07 02:43:19;;;;;;;8.48;3.12;;;;;;;8.55;64.55;100815.06;1759355;81;25625;-58
2021/05/07 02:45:47;;;;;;;7.65;2.65;;;;;;;8.57;64.31;100819.83;1759507;81;25610;-58
2021/05/07 02:48:15;;;;;;;11.65;3.30;;;;;;;8.61;63.94;100821.28;1759584;81;25701;-59
2021/05/07 02:50:43;;;;;;;5.22;2.72;;;;;;;8.66;63.79;100825.44;1742632;81;26149;-58
2021/05/07 02:53:13;;;;;;;8.28;3.02;;;;;;;8.68;63.72;100832.38;1749791;81;27514;-59
2021/05/07 02:55:41;;;;;;;10.70;3.10;;;;;;;8.70;63.55;100830.43;1772563;80;26091;-58
2021/05/07 02:58:09;;;;;;;15.40;3.65;;;;;;;8.69;63.24;100826.04;1765223;81;25636;-58
2021/05/07 03:00:40;;;;;;;8.38;3.00;;;;;;;8.69;63.17;100824.70;1764881;80;25661;-62
2021/05/07 03:03:09;;;;;;;5.85;3.02;;;;;;;8.65;63.02;100813.84;1764747;81;25690;-61
2021/05/07 03:05:41;;;;;;;12.50;3.45;;;;;;;8.66;63.16;100812.86;1759581;81;29023;-59
2021/05/07 03:08:09;;;;;;;25.20;3.62;;;;;;;8.68;63.10;100805.55;1733937;81;25764;-64
2021/05/07 03:10:54;;;;;;;17.20;3.75;;;;;;;8.74;62.94;100798.34;1843886;76;25519;-60
2021/05/07 03:13:23;;;;;;;11.13;3.57;;;;;;;8.70;62.86;100793.35;1814335;78;26557;-60
2021/05/07 03:15:51;;;;;;;7.33;3.47;;;;;;;8.70;62.81;100798.72;1813817;79;27518;-61
2021/05/07 03:18:22;;;;;;;8.33;3.90;;;;;;;8.68;62.78;100807.40;1813608;79;25925;-62
2021/05/07 03:20:52;;;;;;;13.83;4.17;;;;;;;8.68;62.68;100813.60;1813816;77;25704;-60
2021/05/07 03:23:26;;;;;;;15.65;4.08;;;;;;;8.70;62.88;100833.11;1813570;79;25730;-62
2021/05/07 03:25:54;;;;;;;15.93;4.37;;;;;;;8.73;62.71;100840.92;1813872;79;25698;-60
2021/05/07 03:28:25;;;;;;;18.50;3.90;;;;;;;8.76;62.85;100850.05;1814137;78;28806;-59
2021/05/07 03:30:54;;;;;;;9.43;4.55;;;;;;;8.79;62.87;100845.42;1813904;79;26038;-58
2021/05/07 03:33:22;;;;;;;5.90;3.10;;;;;;;8.81;63.17;100854.20;1814159;77;25638;-59
2021/05/07 03:35:50;;;;;;;12.13;3.35;;;;;;;8.83;63.23;100853.09;1814014;78;26527;-57
2021/05/07 03:38:18;;;;;;;7.08;3.17;;;;;;;8.89;63.14;100851.76;1814240;79;26105;-57
2021/05/07 03:40:46;;;;;;;7.33;3.08;;;;;;;8.95;63.90;100840.52;1813909;79;27588;-58
2021/05/07 03:43:14;;;;;;;10.65;3.33;;;;;;;8.92;63.80;100839.42;1813986;79;25489;-58
2021/05/07 03:45:42;;;;;;;17.30;3.00;;;;;;;8.91;64.87;100831.03;1814012;79;25503;-58
2021/05/07 03:48:18;;;;;;;21.15;3.22;;;;;;;8.96;65.50;100827.98;1814090;77;25694;-58
2021/05/07 03:50:48;;;;;;;11.10;3.47;;;;;;;9.01;64.89;100837.33;1813118;78;26104;-58
2021/05/07 03:53:17;;;;;;;8.80;2.83;;;;;;;9.11;64.92;100836.11;1812391;79;27482;-58
2021/05/07 03:55:46;;;;;;;4.62;2.72;;;;;;;9.28;64.69;100843.27;1738692;81;25753;-58
2021/05/07 03:58:14;;;;;;;11.08;2.95;;;;;;;9.43;64.56;100836.63;1762714;79;25729;-58
2021/05/07 04:00:43;;;;;;;9.15;2.83;;;;;;;9.61;64.72;100838.28;1762793;79;25611;-58
2021/05/07 04:03:12;;;;;;;18.73;3.50;;;;;;;9.78;64.16;100835.50;1762899;81;25529;-58
2021/05/07 04:05:41;;;;;;;12.53;3.05;;;;;;;9.95;63.86;100834.59;1762287;79;28476;-58
2021/05/07 04:08:15;;;;;;;12.75;3.65;;;;;;;10.06;63.54;100829.13;1812250;79;25847;-58
2021/05/07 04:10:43;;;;;;;10.05;3.67;;;;;;;10.16;63.21;100835.93;1750235;81;25739;-59
2021/05/07 04:15:40;;;;;;;13.78;2.80;;;;;;;10.33;63.33;100854.14;1815541;78;25701;-58
2021/05/07 04:18:09;;;;;;;9.65;3.00;;;;;;;10.44;63.13;100851.05;1751488;81;28480;-58
2021/05/07 04:20:36;;;;;;;26.17;3.47;;;;;;;10.51;62.71;100852.70;1761142;79;25835;-58
2021/05/07 04:23:04;;;;;;;13.08;3.47;;;;;;;10.54;62.23;100855.97;1801858;77;25850;-58
2021/05/07 04:25:33;;;;;;;13.95;2.60;;;;;;;10.57;62.08;100853.02;1801430;79;25801;-59
2021/05/07 04:28:00;;;;;;;17.40;3.30;;;;;;;10.62;61.94;100852.11;1803631;78;25618;-59
2021/05/07 04:30:29;;;;;;;14.43;4.55;;;;;;;10.65;61.88;100849.67;1798714;78;27867;-57
2021/05/07 04:32:56;;;;;;;15.13;3.25;;;;;;;10.65;61.82;100838.91;1804711;77;25606;-57
2021/05/07 04:35:24;;;;;;;14.55;3.58;;;;;;;10.70;62.20;100842.53;1810963;78;25724;-57
2021/05/07 04:37:54;;;;;;;14.93;2.95;;;;;;;10.69;62.04;100827.37;1834151;78;26181;-59
2021/05/07 04:40:22;;;;;;;15.58;3.67;;;;;;;10.70;62.43;100818.32;1753032;81;25754;-57
2021/05/07 04:42:49;;;;;;;17.92;3.75;;;;;;;10.70;62.34;100826.39;1739418;82;27564;-58
2021/05/07 04:45:17;;;;;;;22.75;4.62;;;;;;;10.75;62.49;100830.86;1798015;78;25723;-58
2021/05/07 04:47:45;;;;;;;25.32;4.60;;;;;;;10.82;62.76;100832.02;1801533;79;25760;-58
2021/05/07 04:50:17;;;;;;;13.58;2.95;;;;;;;10.90;62.55;100836.22;1742259;81;25635;-60
2021/05/07 04:52:46;;;;;;;21.03;4.00;;;;;;;10.94;62.41;100837.66;1790277;78;25778;-58
2021/05/07 04:55:15;;;;;;;22.95;3.52;;;;;;;11.00;62.42;100839.43;1784381;79;28262;-58
2021/05/07 04:57:44;;;;;;;14.93;3.47;;;;;;;11.03;62.79;100843.20;1784401;80;26496;-58
2021/05/07 05:00:14;;;;;;;9.50;2.67;;;;;;;11.07;62.99;100844.65;1784349;79;25715;-58
2021/05/07 05:02:42;;;;;;;9.95;2.95;;;;;;;11.12;63.78;100847.77;1784422;80;25729;-58
2021/05/07 05:05:18;;;;;;;8.85;3.70;;;;;;;11.14;63.65;100848.48;1784204;79;25661;-62
2021/05/07 05:07:57;;;;;;;13.05;3.00;;;;;;;11.18;64.44;100836.43;1783151;79;28939;-60
2021/05/07 05:10:37;;;;;;;8.18;3.37;;;;;;;11.25;65.24;100822.77;1784520;80;26538;-59
2021/05/07 05:13:05;;;;;;;12.25;3.22;;;;;;;11.31;64.63;100822.70;1791888;78;25828;-58
2021/05/07 05:15:33;;;;;;;7.47;2.75;;;;;;;11.38;64.94;100826.56;1806184;78;25665;-58
2021/05/07 05:18:01;;;;;;;4.97;2.65;;;;;;;11.49;65.09;100820.19;1799174;79;25703;-57
2021/05/07 05:20:29;;;;;;;10.45;3.00;;;;;;;11.59;65.01;100828.25;1812752;78;27570;-57
2021/05/07 05:22:57;;;;;;;11.90;3.42;;;;;;;11.71;64.37;100824.92;1824802;77;26147;-57
2021/05/07 05:25:25;;;;;;;9.03;4.00;;;;;;;11.82;63.08;100817.20;1850543;77;25688;-57
2021/05/07 05:27:53;;;;;;;20.52;3.77;;;;;;;11.93;62.34;100811.63;1850594;77;25755;-57
2021/05/07 05:30:23;;;;;;;17.48;3.90;;;;;;;12.04;61.76;100803.94;1794828;79;25672;-58
2021/05/07 05:32:51;;;;;;;15.48;3.87;;;;;;;12.12;61.13;100800.49;1795013;79;28517;-57
2021/05/07 05:35:20;;;;;;;13.25;4.30;;;;;;;12.19;60.84;100802.47;1850440;77;25685;-57
2021/05/07 05:37:48;;;;;;;9.45;4.05;;;;;;;12.30;60.66;100807.34;1795011;79;25719;-58
2021/05/07 05:40:17;;;;;;;11.90;3.67;;;;;;;12.43;60.86;100813.77;1850397;77;25700;-58
2021/05/07 05:42:44;;;;;;;11.45;3.87;;;;;;;12.56;61.24;100808.03;1794743;79;25767;-59
2021/05/07 05:45:14;;;;;;;7.15;3.12;;;;;;;12.67;61.55;100806.50;1850390;77;27529;-56
2021/05/07 05:47:42;;;;;;;13.98;3.80;;;;;;;12.78;61.74;100816.24;1794953;79;25668;-57
2021/05/07 05:50:12;;;;;;;9.30;4.22;;;;;;;12.81;61.91;100810.55;1784719;79;25646;-57
2021/05/07 05:52:41;;;;;;;8.03;3.47;;;;;;;12.86;61.75;100806.05;1795002;79;25665;-57
2021/05/07 05:55:10;;;;;;;12.15;3.52;;;;;;;12.92;61.14;100806.28;1817079;78;26224;-57
2021/05/07 05:57:38;;;;;;;10.32;4.20;;;;;;;12.99;60.17;100814.63;1817173;78;27555;-57
2021/05/07 06:00:08;;;;;;;10.45;4.20;;;;;;;13.06;60.17;100818.42;1817005;78;25616;-59
2021/05/07 06:02:38;;;;;;;11.73;3.52;;;;;;;13.15;60.20;100809.41;1817209;78;25649;-58
2021/05/07 06:05:13;;;;;;;19.25;3.20;;;;;;;13.24;59.92;100813.06;1817120;77;25742;-58
2021/05/07 06:07:42;;;;;;;17.52;3.27;;;;;;;13.30;59.12;100804.85;1817059;78;25694;-58
2021/05/07 06:10:13;;;;;;;8.15;2.72;;;;;;;13.31;58.81;100795.75;1814009;78;28651;-59
2021/05/07 06:12:47;;;;;;;7.10;2.27;;;;;;;13.35;58.90;100772.80;1805690;79;25621;-62
2021/05/07 06:15:21;;;;;;;8.13;2.10;;;;;;;13.42;58.62;100770.38;1771268;79;25353;-60
2021/05/07 06:17:50;;;;;;;7.55;2.02;;;;;;;13.49;58.79;100771.96;1755828;80;26058;-60
2021/05/07 06:20:22;;;;;;;7.40;2.60;;;;;;;13.57;58.50;100770.68;1724203;83;25654;-57
2021/05/07 06:22:50;;;;;;;9.50;2.27;;;;;;;13.59;58.21;100780.33;1724306;81;27542;-57
2021/05/07 06:25:25;;;;;;;11.83;2.50;;;;;;;13.68;58.27;100772.28;1750312;80;25972;-57
2021/05/07 06:27:53;;;;;;;13.43;2.75;;;;;;;13.75;58.33;100766.10;1750357;80;25695;-57
2021/05/07 06:30:21;;;;;;;11.45;3.00;;;;;;;13.78;58.30;100768.98;1750114;81;25743;-57
2021/05/07 06:32:49;;;;;;;5.10;2.15;;;;;;;13.84;58.03;100779.16;1750306;81;26247;-58
2021/05/07 06:35:18;;;;;;;10.78;2.60;;;;;;;13.87;58.04;100764.47;1750233;81;27532;-58
2021/05/07 06:37:48;;;;;;;4.97;2.17;;;;;;;13.91;57.82;100759.94;1750262;80;25569;-57
2021/05/07 06:40:17;;;;;;;7.83;2.52;;;;;;;13.97;57.75;100750.87;1750283;81;25672;-58
2021/05/07 06:42:48;;;;;;;8.15;3.92;;;;;;;14.05;57.46;100740.09;1750266;81;25651;-58
2021/05/07 06:45:17;;;;;;;11.65;3.58;;;;;;;14.09;57.67;100744.16;1750371;81;25694;-58
2021/05/07 06:47:46;;;;;;;10.95;2.67;;;;;;;14.12;57.81;100739.79;1750345;81;27508;-58
2021/05/07 06:50:15;;;;;;;7.47;2.47;;;;;;;14.20;58.00;100730.89;1762867;80;25742;-58
2021/05/07 06:52:44;;;;;;;9.13;2.67;;;;;;;14.31;57.94;100730.58;1786921;80;25735;-59
2021/05/07 06:55:14;;;;;;;10.18;2.47;;;;;;;14.42;57.73;100724.55;1786893;78;25692;-58
2021/05/07 06:57:41;;;;;;;12.80;2.10;;;;;;;14.54;57.64;100730.02;1787118;78;25697;-59
2021/05/07 07:00:11;;;;;;;10.18;3.72;;;;;;;14.66;56.98;100727.86;1786871;80;27521;-58
2021/05/07 07:02:40;;;;;;;11.18;2.67;;;;;;;14.81;56.62;100729.45;1786942;80;25657;-58
2021/05/07 07:05:11;;;;;;;5.30;2.15;;;;;;;14.96;56.21;100728.31;1786926;78;25650;-59
2021/05/07 07:07:39;;;;;;;8.68;2.30;;;;;;;15.06;56.04;100728.16;1778265;78;26112;-59
2021/05/07 07:10:10;;;;;;;12.20;2.47;;;;;;;15.14;55.32;100730.38;1767876;79;25640;-59
2021/05/07 07:12:38;;;;;;;15.80;2.60;;;;;;;15.22;55.19;100728.69;1769197;80;27539;-59
2021/05/07 07:15:08;;;;;;;8.20;2.37;;;;;;;15.29;54.88;100729.70;1708240;82;26584;-59
2021/05/07 07:17:37;;;;;;;15.55;2.50;;;;;;;15.38;54.48;100726.48;1745633;81;25724;-58
2021/05/07 07:20:08;;;;;;;14.90;1.95;;;;;;;15.43;53.93;100721.41;1798343;79;25717;-58
2021/05/07 07:22:37;;;;;;;16.62;2.70;;;;;;;15.48;53.69;100729.88;1805437;79;25808;-58
2021/05/07 07:25:07;;;;;;;9.18;2.30;;;;;;;15.53;53.43;100730.72;1786392;78;26842;-58
2021/05/07 07:27:35;;;;;;;20.25;2.67;;;;;;;15.56;53.52;100729.87;1786408;80;25647;-58
2021/05/07 07:30:05;;;;;;;6.58;2.22;;;;;;;15.66;53.36;100721.58;1789532;79;25474;-58
2021/05/07 07:32:33;;;;;;;14.73;2.30;;;;;;;15.75;53.33;100714.26;1796115;78;26442;-58
2021/05/07 07:35:02;;;;;;;14.38;2.42;;;;;;;15.85;53.15;100710.06;1798707;79;25507;-58
2021/05/07 07:37:30;;;;;;;10.18;2.67;;;;;;;15.90;53.13;100703.59;1797053;79;27530;-58
2021/05/07 07:39:58;;;;;;;14.33;2.83;;;;;;;15.95;52.99;100708.01;1801825;79;25991;-58
2021/05/07 07:42:26;;;;;;;10.32;2.47;;;;;;;15.96;53.07;100712.38;1793589;79;26311;-58
2021/05/07 07:44:56;;;;;;;14.65;2.62;;;;;;;16.01;52.87;100707.30;1786371;79;25781;-58
2021/05/07 07:47:24;;;;;;;23.25;3.20;;;;;;;16.09;52.98;100714.59;1786591;79;25842;-58
2021/05/07 07:49:54;;;;;;;16.48;3.83;;;;;;;16.14;53.13;100710.83;1790620;79;27520;-58
2021/05/07 07:52:22;;;;;;;9.75;3.75;;;;;;;16.27;53.17;100710.27;1806701;78;25666;-58
2021/05/07 07:54:50;;;;;;;17.48;4.58;;;;;;;16.40;53.23;100702.43;1743368;81;25710;-58
2021/05/07 07:57:18;;;;;;;13.05;3.70;;;;;;;16.53;53.18;100706.42;1743419;82;25680;-58
2021/05/07 07:59:47;;;;;;;15.70;4.45;;;;;;;16.64;53.33;100706.04;1743621;82;25426;-58
2021/05/07 08:02:15;;;;;;;10.72;4.08;;;;;;;16.74;53.36;100709.38;1774294;80;28472;-59
2021/05/07 08:04:43;;;;;;;17.40;4.45;;;;;;;16.82;53.14;100707.11;1743445;82;25848;-58
2021/05/07 08:07:16;;;;;;;13.38;3.50;;;;;;;16.85;53.28;100707.29;1743526;81;25637;-60
2021/05/07 08:09:42;;;;;;;8.28;3.90;;;;;;;16.88;53.13;100710.98;1743026;82;25833;-58
2021/05/07 08:12:11;;;;;;;7.87;2.92;;;;;;;16.87;53.01;100707.44;1747861;82;26140;-58
2021/05/07 08:14:40;;;;;;;12.53;2.80;;;;;;;16.93;53.02;100702.30;1749263;81;27538;-59
2021/05/07 08:17:11;;;;;;;12.85;3.50;;;;;;;16.99;53.11;100701.60;1770285;81;25674;-59
2021/05/07 08:19:41;;;;;;;9.23;3.87;;;;;;;17.03;53.14;100701.59;1770223;81;25478;-58
2021/05/07 08:22:09;;;;;;;11.40;5.12;;;;;;;17.02;53.38;100699.39;1770424;81;26870;-58
2021/05/07 08:24:37;;;;;;;13.15;4.70;;;;;;;17.02;53.47;100699.89;1796405;79;25740;-57
2021/05/07 08:27:06;;;;;;;17.55;3.30;;;;;;;16.99;53.49;100702.95;1850059;77;27518;-57
2021/05/07 08:29:34;;;;;;;11.35;3.35;;;;;;;16.97;53.68;100702.31;1783566;80;25428;-57
2021/05/07 08:32:05;;;;;;;14.07;3.50;;;;;;;16.92;53.82;100705.55;1801663;79;25797;-58
2021/05/07 08:34:32;;;;;;;17.25;3.27;;;;;;;16.90;54.12;100702.98;1849867;77;25616;-58
2021/05/07 08:37:00;;;;;;;12.93;3.95;;;;;;;16.88;54.11;100706.91;1849979;77;26704;-57
2021/05/07 08:39:31;;;;;;;18.95;3.00;;;;;;;16.86;54.29;100703.03;1849263;77;27509;-60
2021/05/07 08:41:59;;;;;;;19.32;3.05;;;;;;;16.84;54.36;100702.88;1783564;80;25804;-60
2021/05/07 08:44:27;;;;;;;12.98;3.52;;;;;;;16.82;54.63;100704.92;1776830;80;25729;-60
2021/05/07 08:46:56;;;;;;;13.65;3.02;;;;;;;16.79;54.94;100697.98;1802397;79;25665;-59
2021/05/07 08:49:25;;;;;;;13.90;3.15;;;;;;;16.77;54.90;100702.74;1767606;80;25399;-61
2021/05/07 08:51:53;;;;;;;12.03;2.52;;;;;;;16.75;55.06;100703.42;1750962;81;27533;-58
2021/05/07 08:57:02;;;;;;;21.77;3.62;;;;;;;16.76;55.49;100691.54;1838155;78;25632;-58
2021/05/07 08:59:33;;;;;;;18.07;3.70;;;;;;;16.70;55.88;100692.27;1813488;78;25731;-60
2021/05/07 09:02:02;;;;;;;21.25;3.87;;;;;;;16.70;56.28;100691.73;1813623;79;28251;-58
2021/05/07 09:04:30;;;;;;;15.63;3.35;;;;;;;16.67;56.14;100692.11;1813571;79;26309;-57
2021/05/07 09:06:58;;;;;;;16.60;3.92;;;;;;;16.69;56.48;100694.11;1813553;79;25642;-57
2021/05/07 09:09:30;;;;;;;12.35;3.87;;;;;;;16.72;56.69;100691.55;1813428;79;25915;-57
2021/05/07 09:12:04;;;;;;;9.03;3.92;;;;;;;16.73;56.70;100682.38;1813584;79;26117;-58
2021/05/07 09:14:32;;;;;;;14.20;6.12;;;;;;;16.75;56.89;100684.41;1805884;79;27513;-58
2021/05/07 09:17:03;;;;;;;18.52;4.37;;;;;;;16.77;57.17;100675.58;1776573;80;25584;-58
2021/05/07 09:19:37;;;;;;;7.55;3.47;;;;;;;16.82;57.43;100669.08;1781517;80;25707;-57
2021/05/07 09:22:05;;;;;;;8.93;4.00;;;;;;;16.85;58.19;100666.02;1781401;80;26199;-57
2021/05/07 09:24:37;;;;;;;12.90;4.03;;;;;;;16.87;58.53;100663.97;1832607;78;25684;-58
2021/05/07 09:27:07;;;;;;;8.75;3.35;;;;;;;16.92;58.70;100665.28;1767458;80;27520;-58
2021/05/07 09:29:40;;;;;;;7.58;3.30;;;;;;;16.91;58.86;100657.66;1767378;81;26113;-58
2021/05/07 09:32:08;;;;;;;12.88;4.03;;;;;;;16.95;58.94;100660.36;1767609;81;25649;-58
2021/05/07 09:34:38;;;;;;;13.50;5.00;;;;;;;17.00;59.21;100653.89;1767491;81;25647;-58
2021/05/07 09:37:19;;;;;;;13.10;3.42;;;;;;;17.05;59.32;100657.42;1767435;81;26110;-58
2021/05/07 09:39:51;;;;;;;16.73;3.42;;;;;;;17.12;59.99;100657.55;1767530;81;28455;-57
2021/05/07 09:42:24;;;;;;;16.60;3.87;;;;;;;17.10;59.41;100653.63;1767273;81;25491;-59
2021/05/07 09:45:03;;;;;;;8.05;3.90;;;;;;;17.14;59.60;100659.05;1767139;80;25667;-60
2021/05/07 09:47:35;;;;;;;9.98;3.52;;;;;;;17.15;59.37;100652.59;1767286;81;25746;-59
2021/05/07 09:50:07;;;;;;;13.48;3.85;;;;;;;17.29;59.35;100653.66;1757403;80;26543;-63
2021/05/07 09:52:36;;;;;;;20.17;3.55;;;;;;;17.39;58.95;100653.39;1747968;81;27524;-58
2021/05/07 09:55:07;;;;;;;14.03;4.08;;;;;;;17.58;59.15;100650.64;1743695;81;26096;-58
2021/05/07 09:57:35;;;;;;;12.03;3.58;;;;;;;17.68;58.67;100649.03;1738449;82;25701;-58
2021/05/07 10:00:07;;;;;;;11.33;3.60;;;;;;;17.91;58.51;100636.70;1736940;82;25665;-58
2021/05/07 10:02:36;;;;;;;9.03;4.03;;;;;;;18.18;58.45;100633.51;1734092;82;25890;-58
2021/05/07 10:05:07;;;;;;;12.37;3.20;;;;;;;18.50;57.58;100614.52;1699298;82;27540;-57
2021/05/07 10:07:34;;;;;;;10.68;3.10;;;;;;;18.79;56.41;100618.19;1729337;82;25684;-58
2021/05/07 10:10:06;;;;;;;7.87;3.60;;;;;;;19.11;56.03;100619.24;1729149;82;25692;-58
2021/05/07 10:12:36;;;;;;;9.68;3.17;;;;;;;19.43;55.57;100616.97;1736395;82;25732;-59
2021/05/07 10:15:06;;;;;;;9.40;4.60;;;;;;;19.76;53.76;100610.91;1739936;82;25637;-58
2021/05/07 10:17:34;;;;;;;10.68;2.83;;;;;;;19.93;53.47;100598.64;1733399;82;26747;-58
2021/05/07 10:20:04;;;;;;;9.70;2.40;;;;;;;20.22;52.64;100595.81;1736185;81;25664;-58
2021/05/07 10:22:41;;;;;;;8.30;3.47;;;;;;;20.43;51.67;100592.95;1709261;82;25805;-58
2021/05/07 10:25:17;;;;;;;8.83;3.85;;;;;;;20.79;51.28;100588.20;1743358;82;25712;-59
2021/05/07 10:27:46;;;;;;;13.03;3.95;;;;;;;21.07;50.71;100577.60;1743393;81;26078;-59
2021/05/07 10:30:32;;;;;;;8.13;3.85;;;;;;;21.49;50.49;100572.70;1743160;82;28500;-59
2021/05/07 10:33:10;;;;;;;10.50;3.27;;;;;;;21.78;49.00;100577.95;1743206;82;25600;-58
2021/05/07 10:35:40;;;;;;;12.85;2.62;;;;;;;22.00;48.77;100577.14;1738407;82;25731;-59
2021/05/07 10:38:15;;;;;;;8.33;2.40;;;;;;;22.26;47.84;100563.00;1729330;82;25626;-57
2021/05/07 10:40:45;;;;;;;10.80;3.25;;;;;;;22.43;46.31;100560.09;1729378;82;25734;-59
2021/05/07 10:43:14;;;;;;;6.30;2.80;;;;;;;22.49;46.42;100556.45;1730537;82;28507;-59
2021/05/07 10:45:48;;;;;;;10.55;2.02;;;;;;;22.45;44.57;100560.72;1730505;82;27592;-59
2021/05/07 10:48:25;;;;;;;4.95;2.30;;;;;;;22.42;45.32;100554.30;1729076;82;25692;-60
2021/05/07 10:51:01;;;;;;;12.53;2.67;;;;;;;22.49;45.32;100548.23;1737892;82;25620;-61
2021/05/07 10:53:36;;;;;;;13.68;2.52;;;;;;;22.49;45.18;100536.44;1743370;82;25523;-58
2021/05/07 10:56:23;;;;;;;8.55;2.87;;;;;;;22.46;44.31;100531.39;1740638;82;27538;-59
2021/05/07 10:58:53;;;;;;;13.72;2.10;;;;;;;22.45;44.52;100531.08;1735128;82;26177;-59
2021/05/07 11:01:27;;;;;;;10.85;3.42;;;;;;;22.47;44.17;100523.48;1735242;82;25789;-59
2021/05/07 11:04:09;;;;;;;9.10;2.47;;;;;;;22.56;43.54;100519.92;1735142;82;25665;-59
2021/05/07 11:06:45;;;;;;;6.05;1.87;;;;;;;22.56;41.19;100509.81;1735196;82;26249;-59
2021/05/07 11:09:24;;;;;;;24.55;2.30;;;;;;;22.49;41.25;100508.48;1735051;81;27544;-59
2021/05/07 11:12:03;;;;;;;8.25;1.87;;;;;;;22.46;42.12;100506.72;1735053;82;25792;-58
2021/05/07 11:14:28;;;;;;;6.42;2.05;;;;;;;22.49;40.91;100501.64;1751737;81;25611;-59
2021/05/07 11:16:56;;;;;;;7.85;1.90;;;;;;;22.44;40.69;100498.73;1723438;81;25727;-59
2021/05/07 11:19:27;;;;;;;17.20;2.55;;;;;;;22.39;40.96;100496.31;1763152;80;25806;-58
2021/05/07 11:22:01;;;;;;;10.60;3.00;;;;;;;22.31;41.40;100482.34;1745995;82;27486;-58
2021/05/07 11:24:43;;;;;;;13.43;2.80;;;;;;;22.31;41.55;100483.70;1760373;81;25715;-59
2021/05/07 11:27:22;;;;;;;14.50;2.25;;;;;;;22.29;41.55;100472.98;1776724;80;25583;-58
2021/05/07 11:30:06;;;;;;;6.85;1.60;;;;;;;22.23;41.74;100466.17;1745976;82;25596;-58
2021/05/07 11:32:34;;;;;;;8.23;1.60;;;;;;;22.19;41.62;100462.48;1812863;79;25702;-59
2021/05/07 11:35:09;;;;;;;13.45;1.80;;;;;;;22.23;41.28;100462.05;1745982;82;27534;-58
2021/05/07 11:37:41;;;;;;;4.33;1.32;;;;;;;22.24;41.76;100467.84;1748939;81;25785;-58
2021/05/07 11:40:14;;;;;;;17.90;1.87;;;;;;;22.34;41.54;100466.29;1782814;80;25470;-58
2021/05/07 11:42:45;;;;;;;8.50;2.27;;;;;;;22.40;41.35;100463.23;1746220;82;26167;-58